LGSM Airport Information

Runway Information
Runway 09 Length 6706 ft width 148 ft Elevation 20 ft Threshold 230 ft Heading 94
Runway 27 Length 6706 ft Width 148 ft Elevation 10 ft Threshold N/A Heading 274
Airport Frequencies
Type A/G Name RDO Frequency 563.7 MHZ
Type APP Name APP Frequency 122.1 MHZ
Type TWR Name TWR Frequency 122.1 MHZ
Airport Navaids
Type VOR-DME Name Samos Frequency 111600 KHZ
Type NDB Name Samos Frequency 375 KHZ
Airport Weather Information & NOTAM
ADDS - METARS form results

(0256 UTC 12 August 2022)
Data provider http://aviationweather.gov/metar/data/
 
METAR text: LGSM 120250Z 03006KT 9999 FEW040 25/18 Q1007
Conditions at: LGSM (SAMOS AIRPORT , GR) observed 0250 UTC 12 August 2022
Temperature: 25.0°C (77°F)
Dewpoint: 18.0°C (64°F) [RH = 65%]
Pressure (altimeter): 29.73 inches Hg (1007.0 mb)
Winds: from the NNE (30 degrees) at 7 MPH (6 knots; 3.1 m/s)
Visibility: 6 or more miles (10+ km)
Ceiling: at least 12,000 feet AGL
Clouds: few clouds at 4000 feet AGL
Weather: no significant weather observed at this time

METAR text: LGSM 120220Z 01004KT 9999 FEW030 26/18 Q1007
Conditions at: LGSM (SAMOS AIRPORT , GR) observed 0220 UTC 12 August 2022
Temperature: 26.0°C (79°F)
Dewpoint: 18.0°C (64°F) [RH = 61%]
Pressure (altimeter): 29.73 inches Hg (1007.0 mb)
Winds: from the N (10 degrees) at 5 MPH (4 knots; 2.1 m/s)
Visibility: 6 or more miles (10+ km)
Ceiling: at least 12,000 feet AGL
Clouds: few clouds at 3000 feet AGL
Weather: no significant weather observed at this time

Forecast for: LGSM (SAMOS AIRPORT , GR)
Text: TAF LGSM 120200Z 1203/1212 36010KT 9999 FEW020
Forecast period: 0300 to 1200 UTC 12 August 2022
Forecast type: FROM: standard forecast or significant change
Winds: from the N (360 degrees) at 12 MPH (10 knots; 5.1 m/s)
Visibility: 6 or more miles (10+ km)
Ceiling: at least 12,000 feet AGL
Clouds: few clouds at 2000 feet AGL
Weather: no significant weather forecast for this period